createdAt,value
2023-03-20T00:01:57.340Z,19.85
2023-03-20T00:04:27.162Z,19.33
2023-03-20T00:06:55.634Z,18.35
2023-03-20T00:09:25.618Z,18.15
2023-03-20T00:11:55.498Z,18.38
2023-03-20T00:14:25.160Z,16.98
2023-03-20T00:16:54.058Z,14.68
2023-03-20T00:19:24.078Z,15.55
2023-03-20T00:21:54.660Z,17.30
2023-03-20T00:24:23.266Z,15.98
2023-03-20T00:26:52.820Z,17.95
2023-03-20T00:29:23.088Z,14.80
2023-03-20T00:31:51.976Z,16.88
2023-03-20T00:34:22.242Z,16.35
2023-03-20T00:36:50.966Z,14.15
2023-03-20T00:39:21.338Z,12.88
2023-03-20T00:41:51.053Z,11.90
2023-03-20T00:44:22.212Z,11.80
2023-03-20T00:46:52.212Z,12.43
2023-03-20T00:49:28.020Z,11.90
2023-03-20T00:51:56.666Z,11.95
2023-03-20T00:54:26.722Z,12.65
2023-03-20T00:56:57.676Z,13.48
2023-03-20T00:59:27.477Z,13.10
2023-03-20T01:01:56.548Z,11.10
2023-03-20T01:04:25.074Z,13.15
2023-03-20T01:06:53.744Z,14.65
2023-03-20T01:09:22.189Z,14.18
2023-03-20T01:11:54.056Z,13.65
2023-03-20T01:14:22.655Z,13.75
2023-03-20T01:16:51.147Z,11.23
2023-03-20T01:19:19.703Z,13.98
2023-03-20T01:21:48.132Z,13.05
2023-03-20T01:24:16.637Z,13.75
2023-03-20T01:26:45.827Z,13.32
2023-03-20T01:29:19.198Z,11.73
2023-03-20T01:31:47.951Z,12.68
2023-03-20T01:34:17.472Z,14.70
2023-03-20T01:36:48.400Z,12.15
2023-03-20T01:39:17.955Z,13.88
2023-03-20T01:41:47.178Z,11.63
2023-03-20T01:44:22.417Z,12.75
2023-03-20T01:46:51.917Z,12.00
2023-03-20T01:49:39.122Z,12.98
2023-03-20T01:52:07.587Z,13.93
2023-03-20T01:54:37.514Z,11.93
2023-03-20T01:57:07.634Z,10.50
2023-03-20T01:59:38.667Z,11.75
2023-03-20T02:02:08.262Z,11.75
2023-03-20T02:04:38.410Z,9.50
2023-03-20T02:07:08.465Z,11.63
2023-03-20T02:09:36.929Z,10.07
2023-03-20T02:12:05.670Z,11.95
2023-03-20T02:14:34.675Z,11.25
2023-03-20T02:17:04.937Z,10.43
2023-03-20T02:19:38.342Z,9.82
2023-03-20T02:22:25.907Z,11.38
2023-03-20T02:25:15.648Z,10.88
2023-03-20T02:27:51.618Z,10.88
2023-03-20T02:30:41.889Z,11.73
2023-03-20T02:33:20.104Z,9.68
2023-03-20T02:36:10.093Z,10.20
2023-03-20T02:38:48.898Z,9.30
2023-03-20T02:41:23.683Z,8.52
2023-03-20T02:43:58.431Z,9.00
2023-03-20T02:46:31.095Z,10.60
2023-03-20T02:49:02.859Z,9.43
2023-03-20T02:51:35.249Z,10.05
2023-03-20T02:54:08.843Z,8.30
2023-03-20T02:56:41.119Z,9.02
2023-03-20T02:59:14.295Z,11.00
2023-03-20T03:01:44.681Z,11.50
2023-03-20T03:04:14.996Z,11.73
2023-03-20T03:06:46.080Z,11.68
2023-03-20T03:09:18.665Z,11.43
2023-03-20T03:11:50.118Z,11.02
2023-03-20T03:14:20.951Z,10.43
2023-03-20T03:16:51.029Z,10.93
2023-03-20T03:19:22.043Z,11.10
2023-03-20T03:21:50.661Z,13.30
2023-03-20T03:24:39.838Z,10.57
2023-03-20T03:27:12.669Z,13.25
2023-03-20T03:29:42.323Z,12.88
2023-03-20T03:32:22.799Z,12.25
2023-03-20T03:34:51.333Z,13.30
2023-03-20T03:37:23.856Z,13.85
2023-03-20T03:39:55.124Z,14.48
2023-03-20T03:42:27.915Z,15.48
2023-03-20T03:44:58.668Z,14.52
2023-03-20T03:47:31.098Z,16.60
2023-03-20T03:50:00.981Z,15.77
2023-03-20T03:52:30.993Z,17.30
2023-03-20T03:55:02.570Z,15.88
2023-03-20T03:57:33.470Z,18.10
2023-03-20T04:00:05.155Z,16.40
2023-03-20T04:02:34.406Z,15.40
2023-03-20T04:05:04.057Z,15.73
2023-03-20T04:07:32.493Z,15.57
2023-03-20T04:10:02.288Z,17.25
2023-03-20T04:12:38.021Z,14.23
2023-03-20T04:15:07.210Z,16.45
2023-03-20T04:17:35.866Z,17.73
2023-03-20T04:20:04.714Z,19.27
2023-03-20T04:22:34.932Z,15.68
2023-03-20T04:25:05.445Z,16.58
2023-03-20T04:27:33.924Z,16.67
2023-03-20T04:30:02.372Z,17.45
2023-03-20T04:32:30.996Z,19.20
2023-03-20T04:34:59.618Z,19.95
2023-03-20T04:37:28.256Z,20.98
2023-03-20T04:39:56.745Z,21.90
2023-03-20T04:42:26.592Z,20.65
2023-03-20T04:44:55.021Z,24.70
2023-03-20T04:47:23.426Z,26.55
2023-03-20T04:49:51.914Z,24.98
2023-03-20T04:52:20.335Z,26.10
2023-03-20T04:54:48.816Z,26.42
2023-03-20T04:57:17.441Z,25.98
2023-03-20T04:59:47.276Z,26.73
2023-03-20T05:02:17.853Z,26.92
2023-03-20T05:04:46.522Z,24.98
2023-03-20T05:07:15.149Z,23.63
2023-03-20T05:09:43.576Z,26.45
2023-03-20T05:12:12.405Z,23.33
2023-03-20T05:14:40.876Z,30.70
2023-03-20T05:17:10.659Z,23.08
2023-03-20T05:19:39.516Z,23.75
2023-03-20T05:22:07.942Z,24.55
2023-03-20T05:24:36.371Z,24.33
2023-03-20T05:27:04.845Z,22.80
2023-03-20T05:29:33.295Z,20.77
2023-03-20T05:32:01.722Z,19.75
2023-03-20T05:34:31.606Z,18.98
2023-03-20T05:37:00.034Z,19.73
2023-03-20T05:39:28.539Z,16.67
2023-03-20T05:41:57.006Z,17.65
2023-03-20T05:44:25.487Z,17.90
2023-03-20T05:46:53.909Z,13.38
2023-03-20T05:49:22.328Z,16.98
2023-03-20T05:51:52.238Z,16.95
2023-03-20T05:54:20.697Z,16.67
2023-03-20T05:56:49.435Z,16.58
2023-03-20T05:59:17.918Z,17.63
2023-03-20T06:01:46.582Z,14.40
2023-03-20T06:04:15.008Z,16.45
2023-03-20T06:06:43.472Z,17.98
2023-03-20T06:09:13.278Z,18.85
2023-03-20T06:11:41.758Z,18.88
2023-03-20T06:14:10.359Z,18.67
2023-03-20T06:16:38.849Z,19.85
2023-03-20T06:19:07.455Z,21.10
2023-03-20T06:21:35.885Z,17.60
2023-03-20T06:24:04.339Z,14.85
2023-03-20T06:26:34.193Z,14.48
2023-03-20T06:29:03.210Z,13.45
2023-03-20T06:31:31.715Z,15.50
2023-03-20T06:34:00.204Z,17.60
2023-03-20T06:36:28.840Z,14.05
2023-03-20T06:38:57.976Z,16.27
2023-03-20T06:41:34.326Z,11.45
2023-03-20T06:44:04.898Z,14.02
2023-03-20T06:46:33.356Z,15.48
2023-03-20T06:49:01.837Z,13.57
2023-03-20T06:51:30.261Z,13.98
2023-03-20T06:53:58.690Z,12.75
2023-03-20T06:56:27.158Z,13.18
2023-03-20T06:58:55.632Z,11.50
2023-03-20T07:01:26.400Z,14.57
2023-03-20T07:03:54.923Z,14.88
2023-03-20T07:06:23.391Z,13.43
2023-03-20T07:08:52.997Z,12.25
2023-03-20T07:11:21.574Z,18.13
2023-03-20T07:13:50.123Z,15.70
2023-03-20T07:16:18.817Z,17.10
2023-03-20T07:18:48.943Z,14.05
2023-03-20T07:21:19.419Z,13.40
2023-03-20T07:23:47.977Z,16.20
2023-03-20T07:26:17.133Z,15.18
2023-03-20T07:28:45.777Z,18.00
2023-03-20T07:31:20.871Z,18.00
2023-03-20T07:33:50.939Z,17.75
2023-03-20T07:36:19.828Z,15.95
2023-03-20T07:38:49.393Z,15.45
2023-03-20T07:41:17.947Z,16.30
2023-03-20T07:43:46.348Z,15.98
2023-03-20T07:46:14.839Z,17.77
2023-03-20T07:48:43.353Z,16.23
2023-03-20T07:51:13.193Z,18.40
2023-03-20T07:53:41.609Z,18.77
2023-03-20T07:56:10.654Z,18.48
2023-03-20T07:58:39.133Z,21.80
2023-03-20T08:01:07.701Z,17.67
2023-03-20T08:03:36.285Z,18.75
2023-03-20T08:06:07.558Z,16.63
2023-03-20T08:08:37.591Z,14.48
2023-03-20T08:11:06.532Z,16.70
2023-03-20T08:13:35.051Z,15.50
2023-03-20T08:16:03.736Z,17.17
2023-03-20T08:18:32.174Z,15.70
2023-03-20T08:21:01.008Z,20.17
2023-03-20T08:23:29.847Z,14.43
2023-03-20T08:25:59.894Z,13.65
2023-03-20T08:28:44.273Z,12.77
2023-03-20T08:31:15.657Z,13.85
2023-03-20T08:33:44.604Z,16.10
2023-03-20T08:36:15.254Z,10.50
2023-03-20T08:38:44.200Z,14.32
2023-03-20T08:41:14.331Z,10.38
2023-03-20T08:43:42.951Z,12.55
2023-03-20T08:46:11.739Z,12.18
2023-03-20T08:48:40.535Z,11.95
2023-03-20T08:51:10.010Z,8.57
2023-03-20T08:53:38.524Z,11.20
2023-03-20T08:56:07.477Z,11.00
2023-03-20T08:58:37.399Z,8.98
2023-03-20T09:01:06.828Z,8.15
2023-03-20T09:03:35.569Z,9.15
2023-03-20T09:06:06.950Z,10.13
2023-03-20T09:08:36.108Z,8.68
2023-03-20T09:11:04.643Z,12.55
2023-03-20T09:13:33.215Z,9.27
2023-03-20T09:16:03.778Z,8.80
2023-03-20T09:18:32.397Z,7.03
2023-03-20T09:21:01.205Z,6.60
2023-03-20T09:23:29.589Z,4.93
2023-03-20T09:25:58.069Z,7.72
2023-03-20T09:28:27.133Z,7.30
2023-03-20T09:30:57.273Z,7.93
2023-03-20T09:33:27.316Z,11.90
2023-03-20T09:35:55.968Z,6.00
2023-03-20T09:38:25.084Z,9.80
2023-03-20T09:40:55.158Z,5.55
2023-03-20T09:43:28.802Z,5.45
2023-03-20T09:46:03.520Z,4.75
2023-03-20T09:48:37.284Z,7.93
2023-03-20T09:51:09.212Z,5.25
2023-03-20T09:53:40.034Z,5.32
2023-03-20T09:56:12.908Z,5.90
2023-03-20T09:58:41.762Z,4.47
2023-03-20T10:01:13.583Z,9.23
2023-03-20T10:03:45.819Z,5.63
2023-03-20T10:06:16.377Z,6.55
2023-03-20T10:08:44.945Z,5.10
2023-03-20T10:11:23.088Z,5.32
2023-03-20T10:14:01.982Z,6.25
2023-03-20T10:16:35.790Z,5.90
2023-03-20T10:19:08.308Z,5.93
2023-03-20T10:21:40.777Z,5.10
2023-03-20T10:24:15.883Z,5.63
2023-03-20T10:26:44.364Z,5.82
2023-03-20T10:29:18.735Z,6.05
2023-03-20T10:31:51.175Z,8.55
2023-03-20T10:34:27.745Z,5.43
2023-03-20T10:37:03.423Z,6.43
2023-03-20T10:39:38.164Z,7.00
2023-03-20T10:42:11.008Z,7.18
2023-03-20T10:44:41.203Z,5.95
2023-03-20T10:47:12.172Z,4.10
2023-03-20T10:49:43.321Z,4.22
2023-03-20T10:52:14.367Z,2.85
2023-03-20T10:54:44.401Z,6.18
2023-03-20T10:57:16.940Z,7.03
2023-03-20T10:59:49.002Z,4.97
2023-03-20T11:02:18.828Z,4.85
2023-03-20T11:04:48.631Z,4.15
2023-03-20T11:07:21.367Z,3.58
2023-03-20T11:10:08.836Z,5.72
2023-03-20T11:12:38.124Z,8.95
2023-03-20T11:15:16.146Z,4.25
2023-03-20T11:17:44.737Z,3.35
2023-03-20T11:20:16.903Z,4.47
2023-03-20T11:22:45.474Z,3.75
2023-03-20T11:25:25.537Z,5.18
2023-03-20T11:27:56.734Z,3.08
2023-03-20T11:30:25.193Z,6.28
2023-03-20T11:32:56.971Z,4.30
2023-03-20T11:35:32.493Z,5.78
2023-03-20T11:38:10.963Z,4.13
2023-03-20T11:40:40.261Z,5.47
2023-03-20T11:43:12.323Z,5.90
2023-03-20T11:45:42.339Z,5.50
2023-03-20T11:48:17.923Z,5.22
2023-03-20T11:50:49.949Z,8.30
2023-03-20T11:53:26.433Z,6.20
2023-03-20T11:56:03.734Z,5.70
2023-03-20T11:58:32.271Z,6.60
2023-03-20T12:01:01.887Z,6.82
2023-03-20T12:03:39.356Z,6.82
2023-03-20T12:06:10.333Z,4.28
2023-03-20T12:08:41.351Z,6.75
2023-03-20T12:11:16.980Z,4.40
2023-03-20T12:13:47.791Z,4.00
2023-03-20T12:16:18.972Z,7.07
2023-03-20T12:18:48.795Z,5.90
2023-03-20T12:21:21.465Z,6.70
2023-03-20T12:23:51.493Z,9.73
2023-03-20T12:26:22.104Z,5.93
2023-03-20T12:28:54.079Z,7.88
2023-03-20T12:31:27.995Z,6.15
2023-03-20T12:33:59.324Z,6.25
2023-03-20T12:36:31.535Z,5.65
2023-03-20T12:39:00.229Z,9.85
2023-03-20T12:41:31.626Z,11.18
2023-03-20T12:44:09.072Z,6.75
2023-03-20T12:46:42.870Z,8.95
2023-03-20T12:49:15.800Z,6.35
2023-03-20T12:51:52.531Z,7.38
2023-03-20T12:54:29.826Z,9.30
2023-03-20T12:57:04.959Z,5.43
2023-03-20T12:59:37.125Z,9.63
2023-03-20T13:02:12.221Z,9.15
2023-03-20T13:04:47.487Z,7.38
2023-03-20T13:07:20.971Z,12.30
2023-03-20T13:10:04.031Z,10.68
2023-03-20T13:12:38.093Z,8.35
2023-03-20T13:15:14.716Z,8.85
2023-03-20T13:17:47.455Z,10.25
2023-03-20T13:20:22.688Z,10.98
2023-03-20T13:22:57.996Z,11.73
2023-03-20T13:25:34.308Z,6.93
2023-03-20T13:28:09.269Z,10.18
2023-03-20T13:30:44.246Z,6.70
2023-03-20T13:33:28.040Z,3.88
2023-03-20T13:35:58.351Z,6.88
2023-03-20T13:38:30.504Z,7.78
2023-03-20T13:41:02.748Z,7.05
2023-03-20T13:43:33.869Z,7.82
2023-03-20T13:46:08.070Z,8.68
2023-03-20T13:48:38.418Z,6.25
2023-03-20T13:51:10.125Z,7.10
2023-03-20T13:53:46.982Z,6.72
2023-03-20T13:56:17.624Z,8.25
2023-03-20T13:58:56.342Z,8.57
2023-03-20T14:01:28.075Z,7.43
2023-03-20T14:03:57.333Z,6.05
2023-03-20T14:06:46.385Z,7.38
2023-03-20T14:09:33.312Z,4.32
2023-03-20T14:12:06.352Z,10.15
2023-03-20T14:14:35.685Z,9.82
2023-03-20T14:17:05.837Z,8.73
2023-03-20T14:19:34.347Z,5.78
2023-03-20T14:22:02.753Z,6.70
2023-03-20T14:24:37.358Z,10.77
2023-03-20T14:27:06.745Z,6.38
2023-03-20T14:29:37.089Z,7.55
2023-03-20T14:32:24.524Z,8.02
2023-03-20T14:34:53.902Z,7.63
2023-03-20T14:37:33.244Z,8.85
2023-03-20T14:40:05.251Z,9.55
2023-03-20T14:42:39.263Z,5.63
2023-03-20T14:45:28.091Z,7.18
2023-03-20T14:47:59.431Z,9.20
2023-03-20T14:50:30.793Z,7.25
2023-03-20T14:53:04.079Z,10.93
2023-03-20T14:55:35.738Z,9.07
2023-03-20T14:58:05.417Z,9.20
2023-03-20T15:00:37.133Z,8.48
2023-03-20T15:03:07.834Z,7.85
2023-03-20T15:05:37.889Z,10.20
2023-03-20T15:08:07.599Z,8.68
2023-03-20T15:10:38.758Z,10.27
2023-03-20T15:13:09.297Z,6.28
2023-03-20T15:15:37.856Z,11.00
2023-03-20T15:18:07.397Z,11.57
2023-03-20T15:20:38.538Z,12.02
2023-03-20T15:23:07.280Z,10.32
2023-03-20T15:25:40.180Z,9.07
2023-03-20T15:28:09.445Z,7.90
2023-03-20T15:30:39.501Z,13.27
2023-03-20T15:33:08.515Z,10.15
2023-03-20T15:35:39.059Z,11.50
2023-03-20T15:38:08.664Z,10.80
2023-03-20T15:40:50.456Z,8.05
2023-03-20T15:43:20.836Z,8.98
2023-03-20T15:45:50.746Z,8.70
2023-03-20T15:48:19.832Z,9.95
2023-03-20T15:50:50.770Z,6.10
2023-03-20T15:53:20.217Z,8.90
2023-03-20T15:55:51.924Z,7.13
2023-03-20T15:58:20.961Z,11.57
2023-03-20T16:00:50.019Z,14.75
2023-03-20T16:03:19.572Z,8.80
2023-03-20T16:05:49.285Z,11.30
2023-03-20T16:08:23.882Z,6.07
2023-03-20T16:10:56.514Z,14.10
2023-03-20T16:13:25.217Z,8.70
2023-03-20T16:15:54.699Z,10.13
2023-03-20T16:18:23.565Z,11.65
2023-03-20T16:20:55.044Z,10.13
2023-03-20T16:23:33.075Z,8.13
2023-03-20T16:26:08.277Z,12.95
2023-03-20T16:28:38.377Z,7.30
2023-03-20T16:31:10.103Z,10.52
2023-03-20T16:33:40.092Z,15.18
2023-03-20T16:36:09.278Z,8.77
2023-03-20T16:38:40.338Z,8.10
2023-03-20T16:41:27.107Z,10.10
2023-03-20T16:43:56.984Z,7.63
2023-03-20T16:46:26.360Z,7.40
2023-03-20T16:48:57.986Z,6.10
2023-03-20T16:51:27.870Z,10.98
2023-03-20T16:53:59.108Z,6.95
2023-03-20T16:56:30.448Z,9.85
2023-03-20T16:58:58.918Z,11.00
2023-03-20T17:01:29.417Z,8.88
2023-03-20T17:03:59.018Z,9.20
2023-03-20T17:06:35.698Z,9.38
2023-03-20T17:09:11.246Z,7.97
2023-03-20T17:11:47.539Z,7.57
2023-03-20T17:14:16.125Z,10.95
2023-03-20T17:16:45.157Z,10.98
2023-03-20T17:19:15.871Z,7.50
2023-03-20T17:21:44.380Z,9.10
2023-03-20T17:24:13.099Z,11.63
2023-03-20T17:26:44.203Z,9.85
2023-03-20T17:29:13.229Z,8.70
2023-03-20T17:31:41.678Z,7.90
2023-03-20T17:34:11.425Z,7.22
2023-03-20T17:36:39.837Z,8.50
2023-03-20T17:39:08.371Z,8.75
2023-03-20T17:41:36.835Z,10.05
2023-03-20T17:44:06.796Z,5.85
2023-03-20T17:46:49.787Z,10.07
2023-03-20T17:49:27.254Z,9.10
2023-03-20T17:51:56.126Z,9.20
2023-03-20T17:54:24.744Z,9.52
2023-03-20T17:56:53.215Z,9.35
2023-03-20T17:59:24.868Z,6.95
2023-03-20T18:01:53.406Z,6.68
2023-03-20T18:04:21.909Z,10.63
2023-03-20T18:06:50.452Z,9.07
2023-03-20T18:09:18.939Z,9.30
2023-03-20T18:11:47.384Z,10.70
2023-03-20T18:14:19.015Z,11.00
2023-03-20T18:16:48.854Z,9.77
2023-03-20T18:19:23.660Z,12.60
2023-03-20T18:21:52.067Z,8.18
2023-03-20T18:24:20.648Z,16.73
2023-03-20T18:26:49.069Z,9.30
2023-03-20T18:29:17.524Z,7.55
2023-03-20T18:31:47.089Z,8.80
2023-03-20T18:34:17.293Z,6.57
2023-03-20T18:36:46.384Z,7.85
2023-03-20T18:39:18.172Z,5.88
2023-03-20T18:41:46.678Z,8.95
2023-03-20T18:44:15.124Z,6.38
2023-03-20T18:46:43.888Z,9.98
2023-03-20T18:49:15.863Z,7.57
2023-03-20T18:51:45.880Z,8.52
2023-03-20T18:54:14.322Z,10.95
2023-03-20T18:56:43.234Z,8.15
2023-03-20T18:59:13.545Z,5.15
2023-03-20T19:01:42.232Z,6.75
2023-03-20T19:04:11.314Z,7.55
2023-03-20T19:06:39.797Z,5.85
2023-03-20T19:09:10.954Z,8.13
2023-03-20T19:11:39.404Z,7.28
2023-03-20T19:14:07.838Z,7.50
2023-03-20T19:16:38.021Z,5.40
2023-03-20T19:19:07.530Z,6.75
2023-03-20T19:21:36.897Z,7.07
2023-03-20T19:24:06.497Z,7.95
2023-03-20T19:26:37.442Z,6.63
2023-03-20T19:29:09.067Z,12.25
2023-03-20T19:31:38.275Z,10.98
2023-03-20T19:34:07.507Z,11.88
2023-03-20T19:36:36.915Z,10.70
2023-03-20T19:39:07.090Z,8.57
2023-03-20T19:41:37.330Z,9.27
2023-03-20T19:44:06.774Z,7.10
2023-03-20T19:46:40.360Z,7.20
2023-03-20T19:49:19.098Z,6.93
2023-03-20T19:51:48.176Z,9.73
2023-03-20T19:54:16.820Z,10.20
2023-03-20T19:56:46.723Z,6.82
2023-03-20T19:59:16.893Z,6.43
2023-03-20T20:01:46.775Z,6.32
2023-03-20T20:04:15.535Z,10.15
2023-03-20T20:06:47.118Z,6.28
2023-03-20T20:09:16.776Z,7.97
2023-03-20T20:11:46.640Z,12.18
2023-03-20T20:14:15.454Z,6.38
2023-03-20T20:16:45.528Z,8.52
2023-03-20T20:19:14.478Z,9.32
2023-03-20T20:24:31.694Z,11.07
2023-03-20T20:27:16.327Z,7.60
2023-03-20T20:29:47.998Z,5.38
2023-03-20T20:32:16.519Z,9.38
2023-03-20T20:35:35.567Z,10.55
2023-03-20T20:38:31.062Z,10.77
2023-03-20T20:40:25.455Z,9.18
2023-03-20T20:43:01.327Z,7.15
2023-03-20T20:45:31.691Z,6.20
2023-03-20T20:48:00.728Z,11.32
2023-03-20T20:50:30.527Z,10.50
2023-03-20T20:53:00.006Z,9.63
2023-03-20T20:55:28.546Z,8.55
2023-03-20T20:57:58.417Z,8.48
2023-03-20T21:00:47.562Z,8.10
2023-03-20T21:03:16.215Z,7.15
2023-03-20T21:05:44.843Z,11.93
2023-03-20T21:08:14.421Z,8.93
2023-03-20T21:10:43.169Z,11.32
2023-03-20T21:13:13.002Z,8.90
2023-03-20T21:15:42.306Z,10.15
2023-03-20T21:18:11.333Z,7.53
2023-03-20T21:20:39.914Z,12.93
2023-03-20T21:23:08.433Z,12.13
2023-03-20T21:25:41.218Z,12.00
2023-03-20T21:28:10.701Z,13.60
2023-03-20T21:30:51.095Z,15.80
2023-03-20T21:33:30.661Z,12.73
2023-03-20T21:35:59.318Z,12.80
2023-03-20T21:41:16.666Z,15.38
2023-03-20T21:43:47.211Z,13.45
2023-03-20T21:55:18.409Z,14.30
2023-03-20T21:58:18.424Z,12.98
2023-03-20T22:03:26.147Z,10.27
2023-03-20T22:06:59.147Z,12.70
2023-03-20T22:12:36.731Z,10.60
2023-03-20T22:43:07.209Z,13.15
2023-03-20T22:45:42.712Z,14.10
2023-03-20T22:48:15.859Z,13.05
2023-03-20T22:50:44.287Z,13.55
2023-03-20T22:53:14.073Z,14.18
2023-03-20T22:55:44.104Z,16.02
2023-03-20T22:58:12.577Z,14.93
2023-03-20T23:00:41.490Z,15.98
2023-03-20T23:03:22.377Z,18.73
2023-03-20T23:05:55.298Z,15.50
2023-03-20T23:08:25.432Z,16.52
2023-03-20T23:10:54.096Z,16.40
2023-03-20T23:13:22.588Z,15.45
2023-03-20T23:15:51.766Z,16.17
2023-03-20T23:18:20.858Z,18.30
2023-03-20T23:20:49.391Z,14.48
2023-03-20T23:23:18.064Z,14.30
2023-03-20T23:25:47.900Z,19.90
2023-03-20T23:28:16.331Z,15.02
2023-03-20T23:30:51.883Z,12.30
2023-03-20T23:33:25.377Z,16.42
2023-03-20T23:36:01.211Z,15.15
2023-03-20T23:38:37.115Z,10.95
2023-03-20T23:41:07.188Z,13.55
2023-03-20T23:43:35.610Z,13.05
2023-03-20T23:46:04.120Z,10.57
2023-03-20T23:48:32.543Z,10.63
2023-03-20T23:51:01.143Z,13.70
2023-03-20T23:53:29.556Z,16.30
2023-03-20T23:55:58.659Z,9.98
2023-03-20T23:58:28.770Z,11.27
